Observations for Trim Patrick St
| Time | AQI | Temp °C | Hum % | Pres Pa | CO μg/m³ | H₂S μg/m³ | NO μg/m³ | NO₂ μg/m³ | O₃ μg/m³ | SO₂ μg/m³ | PM1 μg/m³ | PM2.5 μg/m³ | PM10 μg/m³ |
|---|---|---|---|---|---|---|---|---|---|---|---|---|---|
| Thursday 27 August 2026 | |||||||||||||
| 13:50 | 3 | 20.5 | 78 | 38,460 | 0.08 | 0 | 2.2 | 12.46 | 38.27 | 2.4 | 17.43 | 24.39 | 26.83 |
| 13:49 | 3 | 20.4 | 78 | 38,460 | 0.1 | 0 | 1.97 | 14.46 | 32.2 | 1.43 | 19.14 | 27.21 | 29.93 |
| 13:48 | 3 | 20.4 | 78 | 38,460 | 0.14 | 0 | 2.03 | 13.55 | 40.13 | 2.14 | 18.29 | 25.1 | 27.61 |
| 13:47 | 3 | 20.4 | 78 | 38,460 | 0.07 | 0 | 1.32 | 8.76 | 42.01 | 2.34 | 16.57 | 23.7 | 26.07 |
| 13:46 | 3 | 20.4 | 78 | 38,460 | 0.06 | 0 | 1.16 | 14.06 | 36.22 | 1.2 | 18.29 | 25.06 | 27.56 |
| 13:45 | 3 | 20.4 | 78 | 38,460 | 0.09 | 0 | 0.96 | 17.17 | 37.49 | 0.87 | 18.29 | 26.52 | 29.17 |
| 13:44 | 3 | 20.4 | 78 | 38,460 | 0.08 | 0 | 0.99 | 11.47 | 40.25 | 2.11 | 18.29 | 25.1 | 27.61 |
| 13:43 | 3 | 20.4 | 78 | 38,460 | 0.09 | 0 | 0.6 | 8.91 | 43.01 | 2.23 | 18.29 | 27.2 | 29.92 |
| 13:42 | 3 | 20.3 | 78 | 38,460 | 0.09 | 0 | 0.82 | 12.16 | 33.96 | 1.51 | 16.57 | 22.25 | 24.48 |
| 13:40 | 3 | 20.3 | 78 | 38,460 | 0.1 | 0 | 0.96 | 11.04 | 38.07 | 1.6 | 18.29 | 25.01 | 27.51 |
| 13:38 | 3 | 20.3 | 79 | 38,460 | 0.09 | 0 | 1.91 | 13.81 | 41.94 | 1.71 | 20.86 | 27.78 | 28.96 |
| 13:37 | 3 | 20.2 | 79 | 38,460 | 0.11 | 0.36 | 1.33 | 19.95 | 38.04 | 0.93 | 20.86 | 26.34 | 28.97 |
| 13:36 | 3 | 20.2 | 79 | 38,460 | 0.12 | 2.39 | 1.07 | 24.69 | 36.36 | 0.46 | 16.57 | 24.95 | 27.44 |
| 13:35 | 3 | 20.2 | 79 | 38,460 | 0.11 | 3.1 | 1 | 56.88 | 14.56 | 0.52 | 18.29 | 24.92 | 27.41 |
| 13:34 | 3 | 20.1 | 80 | 38,460 | 0.11 | 1.84 | 0.48 | 16.89 | 39.63 | 1.27 | 20 | 26.96 | 29.66 |
| 13:33 | 3 | 20.1 | 80 | 38,460 | 0.13 | 3 | 0.62 | 21.84 | 49.45 | 0.56 | 20 | 25.53 | 28.09 |
| 13:32 | 3 | 20.1 | 80 | 38,460 | 0.12 | 1.6 | 0.74 | 19.04 | 35.55 | 1.25 | 18.29 | 22.77 | 25.05 |
| 13:31 | 3 | 20 | 80 | 38,460 | 0.12 | 1.58 | 0.92 | 13.87 | 41.06 | 1.79 | 19.14 | 26.24 | 28.86 |
| 13:29 | 3 | 19.9 | 80 | 38,460 | 0.1 | 2.58 | 1.19 | 16.61 | 54.5 | 1.03 | 18.29 | 24.1 | 26.51 |
| 13:28 | 3 | 19.9 | 80 | 38,460 | 0.1 | 1.95 | 0.96 | 18.03 | 46.99 | 0.62 | 19.14 | 25.52 | 28.07 |